Time;durP1;ratioP1;P1;durP2;ratioP2;P2;SDS_P1;SDS_P2;PMS_P1;PMS_P2;Temp;Humidity;BMP_temperature;BMP_pressure;BME280_temperature;BME280_humidity;BME280_pressure;Samples;Min_cycle;Max_cycle;Signal;HPM_P1;HPM_P2
2022/06/12 00:01:30;;;;;;;;;;;19.80;99.90;;;;;;4436730;32;44187;-80
2022/06/12 00:03:57;;;;;;;;;;;19.80;99.90;;;;;;4450894;32;44217;-80
2022/06/12 00:06:24;;;;;;;;;;;19.80;99.90;;;;;;4450919;32;43554;-80
2022/06/12 00:08:55;;;;;;;;;;;19.80;99.90;;;;;;4450482;32;44199;-80
2022/06/12 00:11:24;;;;;;;;;;;19.80;99.90;;;;;;4436945;32;42672;-81
2022/06/12 00:13:53;;;;;;;;;;;19.70;99.90;;;;;;4450612;32;43273;-80
2022/06/12 00:16:23;;;;;;;;;;;19.70;99.90;;;;;;4450644;32;42658;-80
2022/06/12 00:18:50;;;;;;;;;;;19.70;99.90;;;;;;4450678;32;42919;-80
2022/06/12 00:21:18;;;;;;;;;;;19.70;99.90;;;;;;4450750;32;43840;-80
2022/06/12 00:23:50;;;;;;;;;;;19.70;99.90;;;;;;4436355;32;45113;-80
2022/06/12 00:26:20;;;;;;;;;;;19.70;99.90;;;;;;4436516;32;44171;-81
2022/06/12 00:28:57;;;;;;;;;;;19.60;99.90;;;;;;4437503;32;43293;-80
2022/06/12 00:31:24;;;;;;;;;;;19.60;99.90;;;;;;4453714;32;43164;-80
2022/06/12 00:33:51;;;;;;;;;;;19.50;99.90;;;;;;4453204;32;42379;-80
2022/06/12 00:36:19;;;;;;;;;;;19.60;99.90;;;;;;4453188;32;43323;-80
2022/06/12 00:38:49;;;;;;;;;;;19.60;99.90;;;;;;4453723;32;44234;-81
2022/06/12 00:41:16;;;;;;;;;;;19.50;99.90;;;;;;4453287;32;43540;-80
2022/06/12 00:43:43;;;;;;;;;;;19.50;99.90;;;;;;4453073;32;45808;-81
2022/06/12 00:46:29;;;;;;;;;;;19.50;99.90;;;;;;4453620;32;43287;-80
2022/06/12 00:48:59;;;;;;;;;;;19.50;99.90;;;;;;4439208;32;42631;-81
2022/06/12 00:51:26;;;;;;;;;;;19.50;99.90;;;;;;4452855;32;45184;-81
2022/06/12 00:53:55;;;;;;;;;;;19.50;99.90;;;;;;4453553;32;44138;-80
2022/06/12 00:56:30;;;;;;;;;;;19.50;99.90;;;;;;4439232;32;45824;-81
2022/06/12 00:59:10;;;;;;;;;;;19.50;99.90;;;;;;4452939;32;42839;-80
2022/06/12 01:01:41;;;;;;;;;;;19.40;99.90;;;;;;4452907;32;44101;-80
2022/06/12 01:06:57;;;;;;;;;;;19.40;99.90;;;;;;4452804;32;42630;-80
2022/06/12 01:09:32;;;;;;;;;;;19.30;99.90;;;;;;4453756;32;20006;-80
2022/06/12 01:12:01;;;;;;;;;;;19.30;99.90;;;;;;4452696;32;43752;-80
2022/06/12 01:14:30;;;;;;;;;;;19.30;99.90;;;;;;4452573;32;43954;-80
2022/06/12 01:16:59;;;;;;;;;;;19.30;99.90;;;;;;4438947;32;43478;-81
2022/06/12 01:19:41;;;;;;;;;;;19.30;99.90;;;;;;4438981;32;44249;-80
2022/06/12 01:22:32;;;;;;;;;;;19.20;99.90;;;;;;4452472;32;43190;-80
2022/06/12 01:25:08;;;;;;;;;;;19.20;99.90;;;;;;4452815;32;42590;-80
2022/06/12 01:27:54;;;;;;;;;;;19.20;99.90;;;;;;4438565;32;43425;-81
2022/06/12 01:30:29;;;;;;;;;;;19.20;99.90;;;;;;4452950;32;44186;-81
2022/06/12 01:33:02;;;;;;;;;;;19.10;99.90;;;;;;4452864;32;45788;-81
2022/06/12 01:35:39;;;;;;;;;;;19.10;99.90;;;;;;4452645;32;43072;-80
2022/06/12 01:38:15;;;;;;;;;;;19.10;99.90;;;;;;4438629;32;43632;-80
2022/06/12 01:40:48;;;;;;;;;;;19.10;99.90;;;;;;4439455;32;20382;-81
2022/06/12 01:43:18;;;;;;;;;;;19.10;99.90;;;;;;4452363;32;44254;-81
2022/06/12 01:45:57;;;;;;;;;;;19.10;99.90;;;;;;4438841;32;44353;-80
2022/06/12 01:48:43;;;;;;;;;;;19.10;99.90;;;;;;4438243;32;44116;-81
2022/06/12 01:51:29;;;;;;;;;;;19.00;99.90;;;;;;4452131;32;42218;-80
2022/06/12 01:54:03;;;;;;;;;;;19.00;99.90;;;;;;4438460;32;43925;-80
2022/06/12 01:56:39;;;;;;;;;;;19.00;99.90;;;;;;4452642;32;43198;-81
2022/06/12 01:59:12;;;;;;;;;;;19.00;99.90;;;;;;4451934;32;43308;-80
2022/06/12 02:01:59;;;;;;;;;;;19.00;99.90;;;;;;4452502;32;44188;-81
2022/06/12 02:04:39;;;;;;;;;;;19.00;99.90;;;;;;4425354;32;43225;-80
2022/06/12 02:07:12;;;;;;;;;;;18.90;99.90;;;;;;4438490;32;43853;-81
2022/06/12 02:09:43;;;;;;;;;;;18.90;99.90;;;;;;4452449;32;44206;-81
2022/06/12 02:15:01;;;;;;;;;;;18.80;99.90;;;;;;4452352;32;44179;-80
2022/06/12 02:17:37;;;;;;;;;;;18.80;99.90;;;;;;4437996;32;44100;-81
2022/06/12 02:20:06;;;;;;;;;;;18.80;99.90;;;;;;4452161;32;43943;-81
2022/06/12 02:22:34;;;;;;;;;;;18.80;99.90;;;;;;4452004;32;44011;-80
2022/06/12 02:25:04;;;;;;;;;;;18.70;99.90;;;;;;4437764;32;43078;-81
2022/06/12 02:27:33;;;;;;;;;;;18.70;99.90;;;;;;4451982;32;43252;-80
2022/06/12 02:30:02;;;;;;;;;;;18.70;99.90;;;;;;4451884;32;43492;-81
2022/06/12 02:32:34;;;;;;;;;;;18.70;99.90;;;;;;4451847;32;42633;-81
2022/06/12 02:35:06;;;;;;;;;;;18.70;99.90;;;;;;4438027;32;44993;-81
2022/06/12 02:37:36;;;;;;;;;;;18.70;99.90;;;;;;4451847;32;43533;-81
2022/06/12 02:40:06;;;;;;;;;;;18.60;99.90;;;;;;4437646;32;44770;-81
2022/06/12 02:42:37;;;;;;;;;;;18.60;99.80;;;;;;4438735;32;20010;-81
2022/06/12 02:45:17;;;;;;;;;;;18.60;99.80;;;;;;4451700;32;42459;-81
2022/06/12 02:47:45;;;;;;;;;;;18.50;99.90;;;;;;4451808;32;43902;-81
2022/06/12 02:50:17;;;;;;;;;;;18.50;99.90;;;;;;4451284;32;43279;-80
2022/06/12 02:53:10;;;;;;;;;;;18.50;99.90;;;;;;4437186;32;42824;-81
2022/06/12 02:55:37;;;;;;;;;;;18.50;99.90;;;;;;4421805;32;44011;-81
2022/06/12 02:58:10;;;;;;;;;;;18.50;99.80;;;;;;4451497;32;44097;-81
2022/06/12 03:00:42;;;;;;;;;;;18.50;99.80;;;;;;4438044;32;43513;-81
2022/06/12 03:03:18;;;;;;;;;;;18.40;99.50;;;;;;4451577;32;44243;-80
2022/06/12 03:05:48;;;;;;;;;;;18.40;99.30;;;;;;4451478;32;44186;-80
2022/06/12 03:08:17;;;;;;;;;;;18.40;99.20;;;;;;4437083;32;44838;-81
2022/06/12 03:10:50;;;;;;;;;;;18.40;99.50;;;;;;4451471;32;43266;-81
2022/06/12 03:13:18;;;;;;;;;;;18.30;99.60;;;;;;4451741;32;21339;-81
2022/06/12 03:15:45;;;;;;;;;;;18.30;99.60;;;;;;4437719;32;43453;-80
2022/06/12 03:18:14;;;;;;;;;;;18.30;99.40;;;;;;4451064;32;43269;-80
2022/06/12 03:21:00;;;;;;;;;;;18.30;99.80;;;;;;4450890;32;43870;-80
2022/06/12 03:23:34;;;;;;;;;;;18.30;99.40;;;;;;4451408;32;44387;-81
2022/06/12 03:26:04;;;;;;;;;;;18.30;99.50;;;;;;4437454;32;44111;-80
2022/06/12 03:28:37;;;;;;;;;;;18.20;99.50;;;;;;4437408;32;45204;-81
2022/06/12 03:31:15;;;;;;;;;;;18.20;99.40;;;;;;4437203;32;43198;-80
2022/06/12 03:33:45;;;;;;;;;;;18.20;99.60;;;;;;4437485;32;44198;-80
2022/06/12 03:36:21;;;;;;;;;;;18.20;99.30;;;;;;4436882;32;44236;-81
2022/06/12 03:38:57;;;;;;;;;;;18.20;99.50;;;;;;4437585;32;43474;-80
2022/06/12 03:41:27;;;;;;;;;;;18.20;99.50;;;;;;4437286;32;42643;-81
2022/06/12 03:44:14;;;;;;;;;;;18.20;99.40;;;;;;4437124;32;44205;-80
2022/06/12 03:46:46;;;;;;;;;;;18.10;99.40;;;;;;4451175;32;44172;-81
2022/06/12 03:49:16;;;;;;;;;;;18.10;99.60;;;;;;4437388;32;43918;-80
2022/06/12 03:51:52;;;;;;;;;;;18.10;99.30;;;;;;4450589;32;42867;-80
2022/06/12 03:54:19;;;;;;;;;;;18.10;99.40;;;;;;4450741;32;43110;-81
2022/06/12 03:59:40;;;;;;;;;;;18.00;99.20;;;;;;4450861;32;44178;-81
2022/06/12 04:02:08;;;;;;;;;;;18.00;98.80;;;;;;4436787;32;42772;-81
2022/06/12 04:04:36;;;;;;;;;;;18.00;99.40;;;;;;4452597;32;43474;-80
2022/06/12 04:07:05;;;;;;;;;;;17.90;99.20;;;;;;4454262;32;43840;-81
2022/06/12 04:09:36;;;;;;;;;;;18.00;99.30;;;;;;4453997;32;43077;-81
2022/06/12 04:12:07;;;;;;;;;;;17.90;99.10;;;;;;4440165;32;43799;-80
2022/06/12 04:14:36;;;;;;;;;;;17.90;99.20;;;;;;4454435;32;20013;-81
2022/06/12 04:17:04;;;;;;;;;;;17.90;98.90;;;;;;4453377;32;43962;-80
2022/06/12 04:19:58;;;;;;;;;;;17.90;99.20;;;;;;4453817;32;43025;-81
2022/06/12 04:22:20;;;;;;;;;;;17.90;99.20;;;;;;4454012;32;43912;-81
2022/06/12 04:24:55;;;;;;;;;;;17.90;99.20;;;;;;4453505;32;44209;-81
2022/06/12 04:27:31;;;;;;;;;;;17.80;99.10;;;;;;4439998;32;43624;-81
2022/06/12 04:30:05;;;;;;;;;;;17.80;99.20;;;;;;4453665;32;44011;-80
2022/06/12 04:32:32;;;;;;;;;;;17.80;99.00;;;;;;4453255;32;44004;-81
2022/06/12 04:34:59;;;;;;;;;;;17.80;99.20;;;;;;4439418;32;44253;-81
2022/06/12 04:37:28;;;;;;;;;;;17.80;99.10;;;;;;4453819;32;44135;-80
2022/06/12 04:39:57;;;;;;;;;;;17.80;99.30;;;;;;4439426;32;43497;-81
2022/06/12 04:42:25;;;;;;;;;;;17.80;99.20;;;;;;4453195;32;45281;-81
2022/06/12 04:44:53;;;;;;;;;;;17.80;99.10;;;;;;4454540;32;20099;-81
2022/06/12 04:47:22;;;;;;;;;;;17.70;98.80;;;;;;4439575;32;44148;-81
2022/06/12 04:49:50;;;;;;;;;;;17.70;99.20;;;;;;4439362;32;43162;-81
2022/06/12 04:52:17;;;;;;;;;;;17.70;99.30;;;;;;4439123;32;43845;-81
2022/06/12 04:54:50;;;;;;;;;;;17.70;98.80;;;;;;4453367;32;43363;-80
2022/06/12 04:57:24;;;;;;;;;;;17.60;99.20;;;;;;4453422;32;43978;-81
2022/06/12 04:59:51;;;;;;;;;;;17.60;99.40;;;;;;4453303;32;42885;-81
2022/06/12 05:02:23;;;;;;;;;;;17.60;99.70;;;;;;4452758;32;43017;-81
2022/06/12 05:04:51;;;;;;;;;;;17.60;99.70;;;;;;4439460;32;45673;-81
2022/06/12 05:07:21;;;;;;;;;;;17.60;99.90;;;;;;4453043;32;42667;-81
2022/06/12 05:09:48;;;;;;;;;;;17.60;99.80;;;;;;4439158;32;44265;-81
2022/06/12 05:12:15;;;;;;;;;;;17.60;99.90;;;;;;4453215;32;43537;-80
2022/06/12 05:14:42;;;;;;;;;;;17.60;99.90;;;;;;4452259;32;42972;-81
2022/06/12 05:17:18;;;;;;;;;;;17.60;99.90;;;;;;4440798;32;20007;-80
2022/06/12 05:19:45;;;;;;;;;;;17.60;99.90;;;;;;4452590;32;43906;-81
2022/06/12 05:22:13;;;;;;;;;;;17.60;99.90;;;;;;4452508;32;42428;-81
2022/06/12 05:24:44;;;;;;;;;;;17.60;99.90;;;;;;4452454;32;43370;-82
2022/06/12 05:27:14;;;;;;;;;;;17.60;99.90;;;;;;4439322;32;43930;-81
2022/06/12 05:29:41;;;;;;;;;;;17.60;99.90;;;;;;4452092;32;43830;-81
2022/06/12 05:32:10;;;;;;;;;;;17.60;99.90;;;;;;4438972;32;44182;-81
2022/06/12 05:34:42;;;;;;;;;;;17.50;99.90;;;;;;4438709;32;43239;-81
2022/06/12 05:37:15;;;;;;;;;;;17.60;99.90;;;;;;4452707;32;45741;-81
2022/06/12 05:39:42;;;;;;;;;;;17.60;99.90;;;;;;4452655;32;45746;-81
2022/06/12 05:42:10;;;;;;;;;;;17.60;99.90;;;;;;4438586;32;43525;-81
2022/06/12 05:44:38;;;;;;;;;;;17.60;99.90;;;;;;4452053;32;44312;-81
2022/06/12 05:47:06;;;;;;;;;;;17.60;99.90;;;;;;4452309;32;42807;-81
2022/06/12 05:49:36;;;;;;;;;;;17.60;99.90;;;;;;4452105;32;43497;-81
2022/06/12 05:52:04;;;;;;;;;;;17.60;99.90;;;;;;4452066;32;42263;-81
2022/06/12 05:54:34;;;;;;;;;;;17.60;99.90;;;;;;4438135;32;43473;-82
2022/06/12 05:57:03;;;;;;;;;;;17.60;99.90;;;;;;4452231;32;43324;-81
2022/06/12 05:59:30;;;;;;;;;;;17.60;99.90;;;;;;4451959;32;43415;-81
2022/06/12 06:02:00;;;;;;;;;;;17.60;99.90;;;;;;4438581;32;43896;-81
2022/06/12 06:04:27;;;;;;;;;;;17.60;99.90;;;;;;4452308;32;44194;-81
2022/06/12 06:06:59;;;;;;;;;;;17.60;99.40;;;;;;4452267;32;45767;-81
2022/06/12 06:09:27;;;;;;;;;;;17.60;99.50;;;;;;4438037;32;42719;-81
2022/06/12 06:11:54;;;;;;;;;;;17.60;99.60;;;;;;4438418;32;43129;-80
2022/06/12 06:14:24;;;;;;;;;;;17.60;99.70;;;;;;4438481;32;44137;-81
2022/06/12 06:16:51;;;;;;;;;;;17.60;99.80;;;;;;4452530;32;43369;-82
2022/06/12 06:19:18;;;;;;;;;;;17.60;99.50;;;;;;4437898;32;42555;-82
2022/06/12 06:21:48;;;;;;;;;;;17.60;99.70;;;;;;4451793;32;42744;-82
2022/06/12 06:24:18;;;;;;;;;;;17.60;99.70;;;;;;4437849;32;45649;-81
2022/06/12 06:26:49;;;;;;;;;;;17.60;99.60;;;;;;4437859;32;45797;-81
2022/06/12 06:29:19;;;;;;;;;;;17.60;99.50;;;;;;4437921;32;44321;-81
2022/06/12 06:31:49;;;;;;;;;;;17.60;99.90;;;;;;4437907;32;42619;-81
2022/06/12 06:34:19;;;;;;;;;;;17.60;99.90;;;;;;4438253;32;45029;-80
2022/06/12 06:36:55;;;;;;;;;;;17.60;99.80;;;;;;4438006;32;44115;-83
2022/06/12 06:39:22;;;;;;;;;;;17.60;99.90;;;;;;4438024;32;45038;-81
2022/06/12 06:41:52;;;;;;;;;;;17.60;99.70;;;;;;4451313;32;44083;-81
2022/06/12 06:47:08;;;;;;;;;;;17.60;99.80;;;;;;4451674;32;44448;-81
2022/06/12 06:49:38;;;;;;;;;;;17.60;99.90;;;;;;4438157;32;20014;-80
2022/06/12 06:52:05;;;;;;;;;;;17.60;99.90;;;;;;4451705;32;45486;-82
2022/06/12 06:54:32;;;;;;;;;;;17.70;99.90;;;;;;4451508;32;44298;-82
2022/06/12 06:57:06;;;;;;;;;;;17.60;99.90;;;;;;4451751;32;45166;-82
2022/06/12 06:59:34;;;;;;;;;;;17.60;99.90;;;;;;4451647;32;43465;-82
2022/06/12 07:02:04;;;;;;;;;;;17.70;99.90;;;;;;4451429;32;44755;-81
2022/06/12 07:04:32;;;;;;;;;;;17.60;99.90;;;;;;4437614;32;44200;-80
2022/06/12 07:07:02;;;;;;;;;;;17.60;99.90;;;;;;4437101;32;43248;-81
2022/06/12 07:09:29;;;;;;;;;;;17.60;99.90;;;;;;4437046;32;43768;-81
2022/06/12 07:11:59;;;;;;;;;;;17.60;99.90;;;;;;4437180;32;43894;-81
2022/06/12 07:14:27;;;;;;;;;;;17.60;99.90;;;;;;4437382;32;43161;-81
2022/06/12 07:16:58;;;;;;;;;;;17.60;99.90;;;;;;4436976;32;44278;-81
2022/06/12 07:19:28;;;;;;;;;;;17.60;99.90;;;;;;4450980;32;42970;-82
2022/06/12 07:21:55;;;;;;;;;;;17.60;99.90;;;;;;4450766;32;44093;-81
2022/06/12 07:24:31;;;;;;;;;;;17.60;99.90;;;;;;4437733;32;43620;-81
2022/06/12 07:26:58;;;;;;;;;;;17.60;99.90;;;;;;4451055;32;43121;-81
2022/06/12 07:29:28;;;;;;;;;;;17.60;99.90;;;;;;4437646;32;44223;-81
2022/06/12 07:31:55;;;;;;;;;;;17.60;99.90;;;;;;4437294;32;45024;-81
2022/06/12 07:34:23;;;;;;;;;;;17.70;99.90;;;;;;4437184;32;45827;-83
2022/06/12 07:36:56;;;;;;;;;;;17.60;99.90;;;;;;4436764;32;44182;-82
2022/06/12 07:39:25;;;;;;;;;;;17.70;99.90;;;;;;4450960;32;44971;-84
2022/06/12 07:41:55;;;;;;;;;;;17.70;99.90;;;;;;4437232;32;45930;-81
2022/06/12 07:44:28;;;;;;;;;;;17.70;99.90;;;;;;4437260;32;45980;-81
2022/06/12 07:46:59;;;;;;;;;;;17.70;99.90;;;;;;4437047;32;45707;-81
2022/06/12 07:49:30;;;;;;;;;;;17.70;99.90;;;;;;4437297;32;43086;-81
2022/06/12 07:51:58;;;;;;;;;;;17.70;99.90;;;;;;4436782;32;41869;-80
2022/06/12 07:54:25;;;;;;;;;;;17.70;99.90;;;;;;4450893;32;43253;-83
2022/06/12 07:56:52;;;;;;;;;;;17.70;99.90;;;;;;4436695;32;43235;-82
2022/06/12 07:59:25;;;;;;;;;;;17.70;99.90;;;;;;4450881;32;43104;-81
2022/06/12 08:01:53;;;;;;;;;;;17.70;99.90;;;;;;4437460;32;38349;-83
2022/06/12 08:04:22;;;;;;;;;;;17.70;99.90;;;;;;4438208;32;20369;-81
2022/06/12 08:06:52;;;;;;;;;;;17.80;99.90;;;;;;4436568;32;42982;-80
2022/06/12 08:09:23;;;;;;;;;;;17.80;99.90;;;;;;4436470;32;44550;-80
2022/06/12 08:11:52;;;;;;;;;;;17.80;99.90;;;;;;4450848;32;42245;-81
2022/06/12 08:14:23;;;;;;;;;;;17.80;99.90;;;;;;4451146;32;45439;-81
2022/06/12 08:16:53;;;;;;;;;;;17.80;99.90;;;;;;4436590;32;43286;-83
2022/06/12 08:22:09;;;;;;;;;;;17.80;99.90;;;;;;4451401;32;20050;-81
2022/06/12 08:24:36;;;;;;;;;;;17.80;99.90;;;;;;4436481;32;44021;-86
2022/06/12 08:27:09;;;;;;;;;;;17.80;99.90;;;;;;4436362;32;44679;-83
2022/06/12 08:29:39;;;;;;;;;;;17.80;99.90;;;;;;4437085;32;44716;-84
2022/06/12 08:32:10;;;;;;;;;;;17.90;99.90;;;;;;4436645;32;42532;-84
2022/06/12 08:34:40;;;;;;;;;;;17.90;99.90;;;;;;4450824;32;44675;-84
2022/06/12 08:37:17;;;;;;;;;;;17.90;99.90;;;;;;4436533;32;43990;-86
2022/06/12 08:39:52;;;;;;;;;;;17.90;99.90;;;;;;4436876;32;45044;-82
2022/06/12 08:42:27;;;;;;;;;;;17.90;99.90;;;;;;4437012;32;43877;-81
2022/06/12 08:45:03;;;;;;;;;;;17.90;99.90;;;;;;4436742;32;44163;-84
2022/06/12 08:47:58;;;;;;;;;;;17.90;99.90;;;;;;4437514;32;44504;-83
2022/06/12 08:50:44;;;;;;;;;;;17.90;99.90;;;;;;4451992;32;43351;-83
2022/06/12 08:53:32;;;;;;;;;;;17.90;99.90;;;;;;4454012;32;23203;-85
2022/06/12 08:56:12;;;;;;;;;;;17.90;99.90;;;;;;4439512;32;44826;-85
2022/06/12 08:58:51;;;;;;;;;;;17.90;99.90;;;;;;4453400;32;44182;-82
2022/06/12 09:01:22;;;;;;;;;;;17.90;99.90;;;;;;4439345;32;42828;-82
2022/06/12 09:03:51;;;;;;;;;;;17.90;99.90;;;;;;4438630;32;43520;-84
2022/06/12 09:06:40;;;;;;;;;;;18.00;99.90;;;;;;4438491;32;43891;-81
2022/06/12 09:09:28;;;;;;;;;;;18.00;99.90;;;;;;4439070;32;42577;-87
2022/06/12 09:12:04;;;;;;;;;;;18.00;99.90;;;;;;4453077;32;44772;-86
2022/06/12 09:14:34;;;;;;;;;;;18.00;99.90;;;;;;4453233;32;43237;-88
2022/06/12 09:17:21;;;;;;;;;;;18.00;99.90;;;;;;4438977;32;42682;-87
2022/06/12 09:19:57;;;;;;;;;;;18.00;99.90;;;;;;4439387;32;44554;-84
2022/06/12 09:22:27;;;;;;;;;;;18.00;99.90;;;;;;4439239;32;43211;-86
2022/06/12 09:25:03;;;;;;;;;;;18.00;99.90;;;;;;4453732;32;20412;-85
2022/06/12 09:27:44;;;;;;;;;;;18.00;99.90;;;;;;4452356;32;45366;-84
2022/06/12 09:30:18;;;;;;;;;;;18.00;99.90;;;;;;4438604;32;43835;-84
2022/06/12 09:32:48;;;;;;;;;;;18.00;99.90;;;;;;4452700;32;42563;-86
2022/06/12 09:35:20;;;;;;;;;;;18.10;99.90;;;;;;4438513;32;43913;-84
2022/06/12 09:38:21;;;;;;;;;;;18.10;99.90;;;;;;4438543;32;42832;-85
2022/06/12 09:40:57;;;;;;;;;;;18.10;99.90;;;;;;4452595;32;42792;-85
2022/06/12 09:43:28;;;;;;;;;;;18.10;99.90;;;;;;4452122;32;44247;-84
2022/06/12 09:46:16;;;;;;;;;;;18.10;99.90;;;;;;4438573;32;43313;-84
2022/06/12 09:48:52;;;;;;;;;;;18.10;99.90;;;;;;4438377;32;44106;-83
2022/06/12 09:51:31;;;;;;;;;;;18.10;99.90;;;;;;4452774;32;44162;-84
2022/06/12 09:54:01;;;;;;;;;;;18.10;99.90;;;;;;4452573;32;45408;-83
2022/06/12 09:56:28;;;;;;;;;;;18.20;99.90;;;;;;4453426;32;20040;-85
2022/06/12 09:59:02;;;;;;;;;;;18.20;99.90;;;;;;4438632;32;42749;-85
2022/06/12 10:01:32;;;;;;;;;;;18.20;99.90;;;;;;4438884;32;43864;-84
2022/06/12 10:04:10;;;;;;;;;;;18.20;99.90;;;;;;4438779;32;45093;-84
2022/06/12 10:06:54;;;;;;;;;;;18.20;99.90;;;;;;4438276;32;43052;-84
2022/06/12 10:09:32;;;;;;;;;;;18.30;99.90;;;;;;4452279;32;44883;-83
2022/06/12 10:12:09;;;;;;;;;;;18.30;99.90;;;;;;4438510;32;43187;-83
2022/06/12 10:14:48;;;;;;;;;;;18.30;99.90;;;;;;4437946;32;44953;-84
2022/06/12 10:17:21;;;;;;;;;;;18.20;99.90;;;;;;4438435;32;42769;-83
2022/06/12 10:20:00;;;;;;;;;;;18.30;99.90;;;;;;4452124;32;44631;-84
2022/06/12 10:22:33;;;;;;;;;;;18.20;99.90;;;;;;4438420;32;45746;-86
2022/06/12 10:25:07;;;;;;;;;;;18.30;99.90;;;;;;4452220;32;44474;-85
2022/06/12 10:27:47;;;;;;;;;;;18.30;99.90;;;;;;4451571;32;43494;-85
2022/06/12 10:30:33;;;;;;;;;;;18.30;99.90;;;;;;4452149;32;43121;-85
2022/06/12 10:33:15;;;;;;;;;;;18.40;99.90;;;;;;4438211;32;43358;-84
2022/06/12 10:35:50;;;;;;;;;;;18.40;99.90;;;;;;4451852;32;44742;-83
2022/06/12 10:38:24;;;;;;;;;;;18.40;99.90;;;;;;4437585;32;44581;-84
2022/06/12 10:41:16;;;;;;;;;;;18.40;99.90;;;;;;4451824;32;43470;-85
2022/06/12 10:43:54;;;;;;;;;;;18.50;99.90;;;;;;4427909;32;45010;-85
2022/06/12 10:46:39;;;;;;;;;;;18.50;99.90;;;;;;4437988;32;43909;-84
2022/06/12 10:49:26;;;;;;;;;;;18.50;99.90;;;;;;4438059;32;41493;-82
2022/06/12 10:52:05;;;;;;;;;;;18.50;99.90;;;;;;4437468;32;42780;-87
2022/06/12 10:54:42;;;;;;;;;;;18.50;99.90;;;;;;4438224;32;44733;-84
2022/06/12 10:57:12;;;;;;;;;;;18.50;99.90;;;;;;4438512;32;40808;-83
2022/06/12 10:59:55;;;;;;;;;;;18.60;99.90;;;;;;4451236;32;44978;-84
2022/06/12 11:02:42;;;;;;;;;;;18.50;99.90;;;;;;4437388;32;42650;-82
2022/06/12 11:05:19;;;;;;;;;;;18.50;99.90;;;;;;4437670;32;44468;-82
2022/06/12 11:08:01;;;;;;;;;;;18.60;99.90;;;;;;4437641;32;43902;-83
2022/06/12 11:10:40;;;;;;;;;;;18.60;99.90;;;;;;4438017;32;45686;-83
2022/06/12 11:13:33;;;;;;;;;;;18.60;99.90;;;;;;4437321;32;45610;-82
2022/06/12 11:16:19;;;;;;;;;;;18.60;99.90;;;;;;4437540;32;44863;-83
2022/06/12 11:19:05;;;;;;;;;;;18.60;99.90;;;;;;4451253;32;44344;-86
2022/06/12 11:21:51;;;;;;;;;;;18.60;99.90;;;;;;4437442;32;44505;-83
2022/06/12 11:24:23;;;;;;;;;;;18.60;99.90;;;;;;4437255;32;44001;-82
2022/06/12 11:27:16;;;;;;;;;;;18.70;99.90;;;;;;4437139;32;43449;-83
2022/06/12 11:29:52;;;;;;;;;;;18.70;99.90;;;;;;4450981;32;43525;-82
2022/06/12 11:32:44;;;;;;;;;;;18.70;99.90;;;;;;4436727;32;44053;-85
2022/06/12 11:35:30;;;;;;;;;;;18.70;99.90;;;;;;4451090;32;45543;-82
2022/06/12 11:38:16;;;;;;;;;;;18.70;99.90;;;;;;4450636;32;43307;-83
2022/06/12 11:40:55;;;;;;;;;;;18.80;99.90;;;;;;4437215;32;44387;-83
2022/06/12 11:43:43;;;;;;;;;;;18.80;99.90;;;;;;4436635;32;44547;-84
2022/06/12 11:46:37;;;;;;;;;;;18.80;99.90;;;;;;4437384;32;44917;-82
2022/06/12 11:49:23;;;;;;;;;;;18.80;99.90;;;;;;4450951;32;44566;-83
2022/06/12 11:52:16;;;;;;;;;;;18.80;99.90;;;;;;4437094;32;43538;-83
2022/06/12 11:54:52;;;;;;;;;;;18.80;99.90;;;;;;4437266;32;46240;-81
2022/06/12 11:57:25;;;;;;;;;;;18.80;99.90;;;;;;4437952;32;19991;-82
2022/06/12 11:59:52;;;;;;;;;;;18.80;99.90;;;;;;4436704;32;43482;-82
2022/06/12 12:02:41;;;;;;;;;;;18.80;99.90;;;;;;4450720;32;42514;-82
2022/06/12 12:05:18;;;;;;;;;;;18.80;99.90;;;;;;4451229;32;44786;-83
2022/06/12 12:08:02;;;;;;;;;;;18.80;99.90;;;;;;4437521;32;43222;-80
2022/06/12 12:10:33;;;;;;;;;;;18.80;99.90;;;;;;4450926;32;46073;-82
2022/06/12 12:13:09;;;;;;;;;;;18.80;99.90;;;;;;4437371;32;44542;-82
2022/06/12 12:15:54;;;;;;;;;;;18.90;99.90;;;;;;4436773;32;44929;-83
2022/06/12 12:18:39;;;;;;;;;;;18.90;99.90;;;;;;4450472;32;44264;-82
2022/06/12 12:21:16;;;;;;;;;;;18.90;99.90;;;;;;4437022;32;43528;-81
2022/06/12 12:23:48;;;;;;;;;;;18.90;99.90;;;;;;4437235;32;43263;-83
2022/06/12 12:26:20;;;;;;;;;;;18.90;99.90;;;;;;4439605;32;44378;-81
2022/06/12 12:28:50;;;;;;;;;;;19.00;99.90;;;;;;4454024;32;21024;-84
2022/06/12 12:31:20;;;;;;;;;;;19.00;99.90;;;;;;4453601;32;42997;-85
2022/06/12 12:33:53;;;;;;;;;;;19.00;99.90;;;;;;4453843;32;43984;-81
2022/06/12 12:42:24;;;;;;;;;;;19.10;99.90;;;;;;4453229;32;44243;-83
2022/06/12 12:44:51;;;;;;;;;;;19.10;99.90;;;;;;4439782;32;43567;-81
2022/06/12 12:47:28;;;;;;;;;;;19.10;99.90;;;;;;4439623;32;44432;-81
2022/06/12 12:50:10;;;;;;;;;;;19.10;99.90;;;;;;4453460;32;42041;-82
2022/06/12 12:52:48;;;;;;;;;;;19.20;99.90;;;;;;4439216;32;44376;-81
2022/06/12 12:55:31;;;;;;;;;;;19.20;99.90;;;;;;4453478;32;44158;-82
2022/06/12 12:58:05;;;;;;;;;;;19.20;99.90;;;;;;4439440;32;44906;-80
2022/06/12 13:00:34;;;;;;;;;;;19.20;99.90;;;;;;4454114;32;19999;-83
2022/06/12 13:03:07;;;;;;;;;;;19.30;99.90;;;;;;4439106;32;44229;-81
2022/06/12 13:05:40;;;;;;;;;;;19.30;99.90;;;;;;4452930;32;45254;-80
2022/06/12 13:08:17;;;;;;;;;;;19.30;99.90;;;;;;4452958;32;43045;-83
2022/06/12 13:10:47;;;;;;;;;;;19.30;99.90;;;;;;4439539;32;45033;-84
2022/06/12 13:13:14;;;;;;;;;;;19.30;99.90;;;;;;4452679;32;44133;-81
2022/06/12 13:15:49;;;;;;;;;;;19.30;99.90;;;;;;4438893;32;43883;-81
2022/06/12 13:18:19;;;;;;;;;;;19.40;99.90;;;;;;4452698;32;44359;-81
2022/06/12 13:21:06;;;;;;;;;;;19.40;99.90;;;;;;4439093;32;38265;-81
2022/06/12 13:23:49;;;;;;;;;;;19.50;99.90;;;;;;4452640;32;42724;-81
2022/06/12 13:26:23;;;;;;;;;;;19.50;99.90;;;;;;4439319;32;45098;-82
2022/06/12 13:28:58;;;;;;;;;;;19.50;99.90;;;;;;4452326;32;43712;-81
2022/06/12 13:31:29;;;;;;;;;;;19.50;99.90;;;;;;4453113;32;44194;-84
2022/06/12 13:34:00;;;;;;;;;;;19.50;99.90;;;;;;4439052;32;43300;-80
2022/06/12 13:36:39;;;;;;;;;;;19.50;99.90;;;;;;4438278;32;44076;-81
2022/06/12 13:39:18;;;;;;;;;;;19.60;99.90;;;;;;4438801;32;43053;-81
2022/06/12 13:41:49;;;;;;;;;;;19.60;99.90;;;;;;4452586;32;44842;-81
2022/06/12 13:44:19;;;;;;;;;;;19.60;99.90;;;;;;4438846;32;44842;-82
2022/06/12 13:46:46;;;;;;;;;;;19.60;99.90;;;;;;4438321;32;45698;-81
2022/06/12 13:49:22;;;;;;;;;;;19.60;99.90;;;;;;4452595;32;44241;-82
2022/06/12 13:51:49;;;;;;;;;;;19.70;99.90;;;;;;4452923;32;44274;-81
2022/06/12 13:54:16;;;;;;;;;;;19.70;99.70;;;;;;4438737;32;44876;-81
2022/06/12 13:56:45;;;;;;;;;;;19.70;99.60;;;;;;4452007;32;45835;-81
2022/06/12 13:59:15;;;;;;;;;;;19.70;99.90;;;;;;4438700;32;44198;-81
2022/06/12 14:01:42;;;;;;;;;;;19.70;99.90;;;;;;4439228;32;20070;-81
2022/06/12 14:04:21;;;;;;;;;;;19.70;99.70;;;;;;4452512;32;45504;-82
2022/06/12 14:06:49;;;;;;;;;;;19.70;99.80;;;;;;4438058;32;43707;-81
2022/06/12 14:09:27;;;;;;;;;;;19.80;99.60;;;;;;4438474;32;42843;-81
2022/06/12 14:11:55;;;;;;;;;;;19.80;99.70;;;;;;4438613;32;44258;-81
2022/06/12 14:14:41;;;;;;;;;;;19.80;99.60;;;;;;4451676;32;44086;-81
2022/06/12 14:17:23;;;;;;;;;;;19.80;99.40;;;;;;4452020;32;45330;-81
2022/06/12 14:20:04;;;;;;;;;;;19.80;99.50;;;;;;4438110;32;46023;-80
2022/06/12 14:22:33;;;;;;;;;;;19.80;99.50;;;;;;4438164;32;45931;-82
2022/06/12 14:25:19;;;;;;;;;;;19.80;99.50;;;;;;4438158;32;45981;-80
2022/06/12 14:27:55;;;;;;;;;;;19.80;99.60;;;;;;4438177;32;43344;-80
2022/06/12 14:30:35;;;;;;;;;;;19.90;99.60;;;;;;4451733;32;44089;-81
2022/06/12 14:33:36;;;;;;;;;;;19.90;99.50;;;;;;4439279;32;43265;-80
2022/06/12 14:36:05;;;;;;;;;;;19.90;99.30;;;;;;4451646;32;45709;-81
2022/06/12 14:38:34;;;;;;;;;;;19.90;99.10;;;;;;4437964;32;43547;-82
2022/06/12 14:41:02;;;;;;;;;;;19.90;99.00;;;;;;4437516;32;46134;-81
2022/06/12 14:43:30;;;;;;;;;;;19.90;98.90;;;;;;4437662;32;45043;-81
2022/06/12 14:46:13;;;;;;;;;;;20.00;99.10;;;;;;4451831;32;43501;-81
2022/06/12 14:48:41;;;;;;;;;;;20.00;98.70;;;;;;4451229;32;43616;-81
2022/06/12 14:51:08;;;;;;;;;;;20.00;98.60;;;;;;4437865;32;43208;-81
2022/06/12 14:53:35;;;;;;;;;;;20.00;97.90;;;;;;4437319;32;44636;-81
2022/06/12 14:56:06;;;;;;;;;;;20.00;98.40;;;;;;4437796;32;43370;-81
2022/06/12 14:58:35;;;;;;;;;;;20.00;98.40;;;;;;4451473;32;44369;-81
2022/06/12 15:01:10;;;;;;;;;;;20.10;98.30;;;;;;4437754;32;43424;-82
2022/06/12 15:03:37;;;;;;;;;;;20.10;98.00;;;;;;4437736;32;43856;-82
2022/06/12 15:06:05;;;;;;;;;;;20.10;97.90;;;;;;4450940;32;44179;-82
2022/06/12 15:08:38;;;;;;;;;;;20.10;97.60;;;;;;4438474;32;44701;-81
2022/06/12 15:11:16;;;;;;;;;;;20.10;97.70;;;;;;4437379;32;43049;-81
2022/06/12 15:13:44;;;;;;;;;;;20.10;97.80;;;;;;4451610;32;45996;-81